createdAt,value
2023-05-03T00:04:42.333Z,5.90
2023-05-03T00:14:46.402Z,5.88
2023-05-03T00:24:52.042Z,5.82
2023-05-03T00:34:57.567Z,5.70
2023-05-03T00:45:41.785Z,5.54
2023-05-03T00:55:45.891Z,5.38
2023-05-03T01:06:22.169Z,5.33
2023-05-03T01:16:41.094Z,5.16
2023-05-03T01:26:44.734Z,5.11
2023-05-03T01:36:50.975Z,5.03
2023-05-03T01:46:55.007Z,4.99
2023-05-03T01:57:00.433Z,4.87
2023-05-03T02:08:04.857Z,4.66
2023-05-03T02:18:11.483Z,4.50
2023-05-03T02:28:15.227Z,4.44
2023-05-03T02:38:19.202Z,4.60
2023-05-03T02:49:04.880Z,4.62
2023-05-03T02:59:13.534Z,4.62
2023-05-03T03:09:17.963Z,4.64
2023-05-03T03:20:22.904Z,4.77
2023-05-03T03:30:26.720Z,5.08
2023-05-03T03:40:46.181Z,5.70
2023-05-03T03:51:33.084Z,6.41
2023-05-03T04:02:37.281Z,10.01
2023-05-03T04:12:42.556Z,18.21
2023-05-03T04:22:46.567Z,23.74
2023-05-03T04:32:54.692Z,27.87
2023-05-03T04:43:00.268Z,31.49
2023-05-03T04:53:04.751Z,34.04
2023-05-03T05:03:12.080Z,36.04
2023-05-03T05:13:18.014Z,35.53
2023-05-03T05:23:22.217Z,28.90
2023-05-03T05:33:50.047Z,22.41
2023-05-03T05:44:35.019Z,18.48
2023-05-03T05:54:41.939Z,16.15
2023-05-03T06:04:51.605Z,15.00
2023-05-03T06:26:07.120Z,13.93
2023-05-03T06:36:12.069Z,13.74
2023-05-03T06:47:16.411Z,13.89
2023-05-03T06:57:20.177Z,13.59
2023-05-03T07:07:25.511Z,13.67
2023-05-03T07:17:29.265Z,13.76
2023-05-03T07:27:53.225Z,14.04
2023-05-03T07:38:02.028Z,13.85
2023-05-03T07:48:06.815Z,14.00
2023-05-03T07:58:12.485Z,13.86
2023-05-03T08:08:16.500Z,14.04
2023-05-03T08:18:23.871Z,14.77
2023-05-03T08:28:28.061Z,15.09
2023-05-03T08:38:35.042Z,15.64
2023-05-03T08:48:52.792Z,15.52
2023-05-03T08:59:28.868Z,15.44
2023-05-03T09:09:35.577Z,15.62
2023-05-03T09:19:55.945Z,15.41
2023-05-03T09:30:18.652Z,14.82
2023-05-03T09:40:30.801Z,15.21
2023-05-03T09:50:39.525Z,14.97
2023-05-03T10:01:43.907Z,14.84
2023-05-03T10:11:59.302Z,16.05
2023-05-03T10:22:02.926Z,16.33
2023-05-03T10:32:35.604Z,16.85
2023-05-03T10:43:06.795Z,16.33
2023-05-03T10:53:43.853Z,15.62
2023-05-03T11:04:08.624Z,15.63
2023-05-03T11:14:14.016Z,16.27
2023-05-03T11:24:19.453Z,17.48
2023-05-03T11:34:46.397Z,17.59
2023-05-03T11:45:30.676Z,17.01
2023-05-03T11:56:21.139Z,15.69
2023-05-03T12:06:53.116Z,15.53
2023-05-03T12:17:00.434Z,17.07
2023-05-03T12:27:08.609Z,16.23
2023-05-03T12:38:03.039Z,15.02
2023-05-03T12:48:11.242Z,15.04
2023-05-03T13:08:33.853Z,16.36
2023-05-03T13:19:22.635Z,17.72
2023-05-03T13:29:29.922Z,17.78
2023-05-03T13:39:33.619Z,17.06
2023-05-03T13:49:40.045Z,15.87
2023-05-03T13:59:44.526Z,15.75
2023-05-03T14:09:48.321Z,15.84
2023-05-03T14:19:53.510Z,16.43
2023-05-03T14:29:57.499Z,16.49
2023-05-03T14:40:02.422Z,16.59
2023-05-03T14:50:07.800Z,16.11
2023-05-03T15:00:14.593Z,16.71
2023-05-03T15:10:18.385Z,16.14
2023-05-03T15:20:23.310Z,15.33
2023-05-03T15:30:27.074Z,14.94
2023-05-03T15:40:34.126Z,14.81
2023-05-03T15:50:37.790Z,14.73
2023-05-03T16:00:43.245Z,14.85
2023-05-03T16:10:47.046Z,14.47
2023-05-03T16:20:51.391Z,14.45
2023-05-03T16:30:55.160Z,14.55
2023-05-03T16:41:00.300Z,14.31
2023-05-03T16:51:05.587Z,14.14
2023-05-03T17:01:13.008Z,13.93
2023-05-03T17:12:06.758Z,13.93
2023-05-03T17:22:12.628Z,13.78
2023-05-03T17:32:16.947Z,13.85
2023-05-03T17:42:26.092Z,13.85
2023-05-03T17:52:29.818Z,13.69
2023-05-03T18:02:34.495Z,13.45
2023-05-03T18:12:41.307Z,13.01
2023-05-03T18:22:45.068Z,12.83
2023-05-03T18:32:49.013Z,12.61
2023-05-03T18:42:53.129Z,11.97
2023-05-03T18:52:58.652Z,11.57
2023-05-03T19:03:02.884Z,11.39
2023-05-03T19:13:07.731Z,10.82
2023-05-03T19:23:11.583Z,10.41
2023-05-03T19:33:25.919Z,10.36
2023-05-03T19:43:31.529Z,10.18
2023-05-03T19:53:56.597Z,10.04
2023-05-03T20:04:00.499Z,9.82
2023-05-03T20:14:05.954Z,9.80
2023-05-03T20:24:52.453Z,9.61
2023-05-03T20:35:00.334Z,9.04
2023-05-03T20:45:04.178Z,8.44
2023-05-03T20:56:08.623Z,8.32
2023-05-03T21:06:14.629Z,8.11
2023-05-03T21:16:18.452Z,7.97
2023-05-03T21:26:24.332Z,8.00
2023-05-03T21:36:28.313Z,8.09
2023-05-03T21:54:10.686Z,8.40
2023-05-03T22:04:14.370Z,8.33
2023-05-03T22:14:18.351Z,8.45
2023-05-03T22:24:22.144Z,8.34
2023-05-03T22:34:27.566Z,8.17
2023-05-03T22:44:32.848Z,7.93
2023-05-03T22:54:36.429Z,7.54
2023-05-03T23:04:42.053Z,7.35
2023-05-03T23:14:46.417Z,6.81
2023-05-03T23:24:51.635Z,6.32
2023-05-03T23:34:55.508Z,6.10
2023-05-03T23:44:59.135Z,5.80
2023-05-03T23:55:03.969Z,5.35
